Time;durP1;ratioP1;P1;durP2;ratioP2;P2;SDS_P1;SDS_P2;PMS_P1;PMS_P2;Temp;Humidity;BMP_temperature;BMP_pressure;BME280_temperature;BME280_humidity;BME280_pressure;Samples;Min_cycle;Max_cycle;Signal;HPM_P1;HPM_P2
2023/05/28 00:08:20;;;;;;;1.90;1.75;;;;;;;25.66;35.79;102308.09;20920964;28;20052;-67
2023/05/28 00:18:23;;;;;;;2.00;1.58;;;;;;;25.72;35.61;102317.31;20921306;28;20103;-68
2023/05/28 00:28:25;;;;;;;1.67;1.27;;;;;;;25.73;35.98;102330.22;20920359;28;20384;-67
2023/05/28 00:38:26;;;;;;;2.05;1.80;;;;;;;25.68;35.83;102331.06;20918783;28;20040;-67
2023/05/28 00:48:30;;;;;;;1.85;1.67;;;;;;;25.77;35.58;102349.03;20918097;28;20489;-68
2023/05/28 00:58:35;;;;;;;2.20;1.40;;;;;;;25.74;35.81;102349.56;20917032;28;20041;-68
2023/05/28 01:08:45;;;;;;;1.60;1.50;;;;;;;25.75;35.77;102356.00;20913381;28;20045;-67
2023/05/28 01:18:48;;;;;;;3.40;1.70;;;;;;;25.75;36.12;102361.59;20913792;28;20037;-67
2023/05/28 01:28:49;;;;;;;1.50;1.40;;;;;;;25.72;35.79;102362.19;20914798;28;20049;-67
2023/05/28 01:38:53;;;;;;;1.30;1.20;;;;;;;25.73;35.58;102373.09;20914604;28;20037;-68
2023/05/28 01:48:57;;;;;;;1.60;1.50;;;;;;;25.74;36.03;102385.16;20913493;28;20044;-68
2023/05/28 01:58:59;;;;;;;1.60;1.48;;;;;;;25.72;35.94;102388.25;20913058;28;20053;-68
2023/05/28 02:09:01;;;;;;;1.60;1.50;;;;;;;25.58;36.09;102359.94;20911893;28;20103;-68
2023/05/28 02:19:05;;;;;;;2.10;1.90;;;;;;;25.71;35.98;102372.56;20909844;28;20488;-68
2023/05/28 02:29:07;;;;;;;1.50;1.40;;;;;;;25.70;35.96;102365.25;20911126;28;20469;-68
2023/05/28 02:39:10;;;;;;;1.60;1.50;;;;;;;25.69;35.76;102363.56;20909886;28;20099;-68
2023/05/28 02:49:11;;;;;;;1.67;1.58;;;;;;;25.68;36.32;102373.09;20909652;28;20103;-69
2023/05/28 02:59:12;;;;;;;2.13;1.30;;;;;;;25.70;36.21;102364.41;20909702;28;20045;-69
2023/05/28 03:09:14;;;;;;;1.80;1.48;;;;;;;25.35;35.58;102302.44;20909463;28;20067;-67
2023/05/28 03:19:18;;;;;;;2.30;1.60;;;;;;;25.67;35.74;102343.41;20913337;28;20033;-68
2023/05/28 03:29:19;;;;;;;1.60;1.50;;;;;;;25.51;35.91;102322.91;20925385;28;20045;-69
2023/05/28 03:39:21;;;;;;;1.45;1.35;;;;;;;25.53;36.15;102314.25;20924234;28;20435;-69
2023/05/28 03:49:22;;;;;;;1.70;1.55;;;;;;;25.65;35.99;102326.00;20923308;28;20079;-68
2023/05/28 03:59:24;;;;;;;1.48;1.38;;;;;;;25.67;35.96;102332.19;20922498;28;20420;-68
2023/05/28 04:09:37;;;;;;;3.38;1.63;;;;;;;25.56;36.14;102313.66;20921750;28;20370;-68
2023/05/28 04:19:40;;;;;;;2.28;1.60;;;;;;;25.63;36.28;102316.19;20921307;28;20385;-68
2023/05/28 04:29:42;;;;;;;1.40;1.30;;;;;;;25.54;36.35;102299.09;20919310;28;20485;-68
2023/05/28 04:39:46;;;;;;;1.48;1.27;;;;;;;25.43;36.02;102291.78;20919762;28;20048;-68
2023/05/28 04:49:47;;;;;;;1.40;1.20;;;;;;;25.46;36.22;102272.47;20918670;28;20049;-68
2023/05/28 04:59:49;;;;;;;1.40;1.30;;;;;;;25.61;36.21;102294.03;20918189;28;20045;-68
2023/05/28 05:09:50;;;;;;;1.73;1.50;;;;;;;25.57;36.46;102282.56;20917499;28;20041;-68
2023/05/28 05:20:04;;;;;;;1.80;1.38;;;;;;;25.57;36.56;102278.94;20916596;28;20045;-68
2023/05/28 05:30:06;;;;;;;1.55;1.40;;;;;;;25.50;36.00;102250.31;20916367;28;20534;-68
2023/05/28 05:40:09;;;;;;;1.60;1.40;;;;;;;25.54;35.99;102259.88;20913383;28;20032;-68
2023/05/28 05:50:14;;;;;;;2.13;1.70;;;;;;;25.52;35.95;102250.88;20913363;28;20075;-68
2023/05/28 06:00:16;;;;;;;1.58;1.27;;;;;;;25.52;35.85;102234.06;20912524;28;20044;-68
2023/05/28 06:10:18;;;;;;;1.80;1.40;;;;;;;25.45;36.12;102217.53;20912205;28;20048;-68
2023/05/28 06:20:22;;;;;;;2.20;1.40;;;;;;;25.50;36.14;102236.31;20912090;28;20037;-68
2023/05/28 06:30:24;;;;;;;2.50;1.40;;;;;;;25.49;36.11;102229.03;20910780;28;20111;-67
2023/05/28 06:40:31;;;;;;;3.70;1.55;;;;;;;24.63;36.13;102099.03;20910051;28;20079;-69
2023/05/28 06:50:35;;;;;;;1.47;1.37;;;;;;;25.48;36.02;102232.97;20909710;28;20045;-70
2023/05/28 07:00:37;;;;;;;1.67;1.30;;;;;;;25.48;36.08;102213.34;20908150;28;20079;-67
2023/05/28 07:10:38;;;;;;;2.03;1.50;;;;;;;25.40;36.37;102202.69;20909072;28;20052;-68
2023/05/28 07:20:39;;;;;;;1.60;1.50;;;;;;;25.44;36.29;102212.22;20909077;28;20037;-68
2023/05/28 07:30:44;;;;;;;1.70;1.40;;;;;;;25.29;36.31;102187.84;20928092;28;20056;-68
2023/05/28 07:40:45;;;;;;;1.60;1.42;;;;;;;25.40;35.98;102191.50;20989215;28;20082;-68
2023/05/28 07:50:46;;;;;;;1.55;1.38;;;;;;;25.42;36.07;102192.03;20990639;28;20048;-68
2023/05/28 08:00:47;;;;;;;1.63;1.38;;;;;;;25.15;36.25;102145.53;20990415;28;20045;-68
2023/05/28 08:10:49;;;;;;;1.60;1.48;;;;;;;25.36;35.96;102185.59;21000928;28;20044;-68
2023/05/28 08:20:50;;;;;;;1.73;1.63;;;;;;;25.31;35.88;102178.03;21004922;28;20067;-68
2023/05/28 08:30:52;;;;;;;1.42;1.33;;;;;;;25.34;36.06;102163.47;21003927;28;20488;-68
2023/05/28 08:40:56;;;;;;;1.67;1.35;;;;;;;25.31;35.96;102164.03;21002770;28;20447;-68
2023/05/28 08:50:58;;;;;;;2.70;1.95;;;;;;;25.29;36.54;102154.22;21000926;28;20049;-68
2023/05/28 09:00:59;;;;;;;1.48;1.38;;;;;;;25.27;36.19;102162.91;21000863;28;20102;-68
2023/05/28 09:11:17;;;;;;;1.73;1.63;;;;;;;25.18;36.05;102144.16;20999125;28;20041;-68
2023/05/28 09:21:19;;;;;;;2.67;1.63;;;;;;;25.20;36.20;102159.56;20999340;28;20036;-68
2023/05/28 09:31:33;;;;;;;2.58;1.45;;;;;;;25.23;36.38;102159.00;20997998;28;20036;-68
2023/05/28 09:41:36;;;;;;;1.83;1.65;;;;;;;25.23;36.47;102159.00;20998233;28;20040;-68
2023/05/28 09:51:40;;;;;;;1.70;1.50;;;;;;;25.26;35.88;102164.03;20996696;28;20044;-68
2023/05/28 10:01:51;;;;;;;2.15;1.85;;;;;;;25.21;36.05;102166.84;20996133;28;20102;-68
2023/05/28 10:12:02;;;;;;;1.40;1.27;;;;;;;25.16;36.41;102163.22;20995535;28;20048;-68
2023/05/28 10:22:05;;;;;;;1.98;1.45;;;;;;;24.94;36.49;102121.44;20994874;28;20451;-68
2023/05/28 10:32:07;;;;;;;2.20;1.98;;;;;;;25.20;36.56;102162.38;20993456;28;20098;-68
2023/05/28 10:42:10;;;;;;;1.85;1.75;;;;;;;25.16;36.32;102161.25;20993917;28;20036;-68
2023/05/28 10:52:21;;;;;;;2.88;1.60;;;;;;;25.16;36.82;102164.06;20993083;28;20395;-67
2023/05/28 11:02:32;;;;;;;2.10;1.80;;;;;;;25.22;36.52;102179.72;20992723;28;20041;-68
2023/05/28 11:12:38;;;;;;;2.42;2.13;;;;;;;25.21;36.68;102172.44;20992301;28;20048;-68
2023/05/28 11:22:40;;;;;;;2.08;1.80;;;;;;;25.23;36.53;102178.59;20990702;28;20037;-68
2023/05/28 11:32:42;;;;;;;2.08;1.88;;;;;;;25.23;36.70;102167.41;20991463;28;20872;-68
2023/05/28 11:42:44;;;;;;;2.33;2.10;;;;;;;24.99;36.75;102125.09;20999811;28;20021;-67
2023/05/28 11:52:45;;;;;;;1.88;1.73;;;;;;;25.23;36.27;102159.00;21006279;28;20048;-68
2023/05/28 12:02:53;;;;;;;1.95;1.75;;;;;;;25.20;36.97;102165.19;21005354;28;20067;-68
2023/05/28 12:12:56;;;;;;;2.50;1.92;;;;;;;25.14;36.76;102135.47;21005088;28;20113;-68
2023/05/28 12:23:01;;;;;;;2.17;1.70;;;;;;;25.23;36.79;102144.97;21001992;28;20086;-68
2023/05/28 12:33:02;;;;;;;1.80;1.70;;;;;;;25.22;36.84;102146.13;21003184;28;20483;-68
2023/05/28 12:43:07;;;;;;;1.77;1.63;;;;;;;25.23;37.03;102130.97;21002835;28;20041;-67
2023/05/28 12:53:08;;;;;;;2.00;1.80;;;;;;;25.04;36.57;102104.63;21000747;28;20071;-67
2023/05/28 13:03:09;;;;;;;2.33;1.77;;;;;;;25.24;36.69;102121.44;21001162;28;20437;-69
2023/05/28 13:13:11;;;;;;;2.45;1.90;;;;;;;25.17;36.64;102120.91;20999507;28;20055;-67
2023/05/28 13:23:12;;;;;;;1.98;1.75;;;;;;;25.24;36.61;102109.41;20998614;28;20384;-68
2023/05/28 13:33:13;;;;;;;2.13;1.70;;;;;;;25.22;37.11;102095.69;20997711;28;20495;-68
2023/05/28 13:43:14;;;;;;;2.08;1.88;;;;;;;25.27;37.09;102092.88;20997475;28;20040;-68
2023/05/28 13:53:16;;;;;;;2.45;1.88;;;;;;;25.18;36.86;102060.13;20996164;28;20052;-68
2023/05/28 14:03:17;;;;;;;2.22;2.00;;;;;;;25.15;36.86;102063.47;20995561;28;20063;-69
2023/05/28 14:13:19;;;;;;;2.65;2.13;;;;;;;25.26;36.74;102067.97;20994754;28;20101;-68
2023/05/28 14:23:20;;;;;;;1.55;1.40;;;;;;;25.27;36.94;102055.63;20994378;28;20036;-69
2023/05/28 14:33:22;;;;;;;2.70;1.95;;;;;;;25.28;36.72;102049.72;20993645;28;20373;-69
2023/05/28 14:43:23;;;;;;;1.80;1.45;;;;;;;25.16;36.92;102023.16;20993656;28;20083;-69
2023/05/28 14:53:24;;;;;;;2.80;1.88;;;;;;;25.30;36.98;102039.09;20991205;28;20048;-69
2023/05/28 15:03:26;;;;;;;1.80;1.63;;;;;;;25.17;37.08;102003.25;20993042;28;20383;-68
2023/05/28 15:13:27;;;;;;;2.38;1.95;;;;;;;25.31;37.09;102015.53;20993781;28;20040;-69
2023/05/28 15:23:28;;;;;;;1.60;1.50;;;;;;;24.99;37.37;101961.84;21009208;28;20071;-69
2023/05/28 15:33:31;;;;;;;3.40;2.05;;;;;;;25.35;37.06;102002.66;21008218;28;20076;-69
2023/05/28 15:43:33;;;;;;;1.88;1.63;;;;;;;25.39;37.21;101993.69;21006298;28;20045;-68
2023/05/28 15:53:34;;;;;;;1.70;1.60;;;;;;;25.35;37.03;101983.03;21006209;28;20407;-69
2023/05/28 16:03:40;;;;;;;2.10;1.90;;;;;;;25.35;37.07;101960.63;21006205;28;20040;-69
2023/05/28 16:13:45;;;;;;;2.03;1.83;;;;;;;25.39;36.80;101944.06;21004627;28;20055;-69
2023/05/28 16:23:47;;;;;;;1.60;1.50;;;;;;;25.42;37.33;101934.25;21003729;28;20036;-69
2023/05/28 16:33:48;;;;;;;2.38;1.85;;;;;;;25.36;37.44;101913.81;21002490;28;20044;-69
2023/05/28 16:43:50;;;;;;;1.70;1.60;;;;;;;25.45;37.06;101922.47;21002552;28;20434;-69
2023/05/28 16:53:52;;;;;;;1.98;1.40;;;;;;;24.75;37.12;101783.31;21001076;28;20044;-69
2023/05/28 17:03:56;;;;;;;1.45;1.35;;;;;;;25.47;37.45;101883.78;21001484;28;20048;-69
2023/05/28 17:13:57;;;;;;;1.80;1.70;;;;;;;25.49;37.39;101873.13;20999794;28;20032;-69
2023/05/28 17:23:59;;;;;;;1.60;1.50;;;;;;;25.52;37.28;101859.38;20999638;28;20037;-69
2023/05/28 17:34:01;;;;;;;1.58;1.48;;;;;;;25.43;37.49;101832.22;20998285;28;20047;-69
2023/05/28 17:44:06;;;;;;;1.80;1.67;;;;;;;25.54;37.52;101828.25;20997549;28;20185;-69
2023/05/28 17:54:08;;;;;;;1.90;1.70;;;;;;;25.62;37.01;101819.22;20996427;28;20106;-68
2023/05/28 18:04:10;;;;;;;1.70;1.60;;;;;;;25.56;37.40;101804.38;20996152;28;20075;-68
2023/05/28 18:14:11;;;;;;;1.33;1.23;;;;;;;25.65;37.07;101809.38;20995439;28;20033;-68
2023/05/28 18:24:12;;;;;;;1.67;1.45;;;;;;;25.64;37.25;101794.53;20994913;28;20040;-68
2023/05/28 18:34:14;;;;;;;1.50;1.40;;;;;;;25.32;37.31;101725.84;20994212;28;20098;-69
2023/05/28 18:44:15;;;;;;;1.65;1.52;;;;;;;25.67;37.11;101768.72;20993775;28;20032;-69
2023/05/28 18:54:16;;;;;;;1.80;1.45;;;;;;;25.66;36.96;101753.03;20991890;28;20051;-68
2023/05/28 19:04:20;;;;;;;2.20;1.50;;;;;;;25.65;36.96;101733.69;20993379;28;20048;-68
2023/05/28 19:14:27;;;;;;;1.70;1.60;;;;;;;25.71;37.00;101727.75;20992326;28;20044;-69
2023/05/28 19:24:29;;;;;;;1.73;1.60;;;;;;;25.60;36.67;101684.13;20991962;28;20048;-68
2023/05/28 19:34:31;;;;;;;1.65;1.55;;;;;;;25.70;36.73;101686.81;20991705;28;20045;-69
2023/05/28 19:44:33;;;;;;;1.80;1.38;;;;;;;25.76;36.86;101679.25;20991535;28;20472;-68
2023/05/28 19:54:34;;;;;;;2.17;1.52;;;;;;;25.77;37.12;101658.50;20991028;28;20446;-68
2023/05/28 20:04:41;;;;;;;3.30;1.60;;;;;;;25.69;36.95;101628.28;20999943;28;20544;-69
2023/05/28 20:14:43;;;;;;;1.52;1.42;;;;;;;25.77;37.04;101614.47;21005050;28;20040;-69
2023/05/28 20:24:45;;;;;;;1.75;1.65;;;;;;;25.80;36.80;101608.28;21004532;28;20045;-68
2023/05/28 20:34:46;;;;;;;1.90;1.60;;;;;;;25.71;36.80;101582.00;21003080;28;20037;-69
2023/05/28 20:44:48;;;;;;;1.60;1.50;;;;;;;25.80;36.61;101585.03;21002326;28;20044;-68
2023/05/28 20:54:52;;;;;;;1.48;1.15;;;;;;;25.79;36.83;101578.53;21001202;28;20040;-69
2023/05/28 21:04:53;;;;;;;1.30;1.20;;;;;;;25.83;36.80;101562.81;21001100;28;20041;-69
2023/05/28 21:14:55;;;;;;;1.70;1.60;;;;;;;25.81;36.69;101542.66;20999296;28;20040;-69
2023/05/28 21:24:56;;;;;;;1.70;1.60;;;;;;;25.79;36.60;101527.25;20999137;28;20040;-69
2023/05/28 21:34:59;;;;;;;1.67;1.58;;;;;;;25.87;36.60;101546.22;20998137;28;20044;-68
2023/05/28 21:45:03;;;;;;;2.35;1.60;;;;;;;25.87;36.50;101525.75;20997322;28;20055;-69
2023/05/28 21:55:05;;;;;;;2.15;1.63;;;;;;;25.85;36.36;101515.69;20996265;28;20040;-68
2023/05/28 22:05:06;;;;;;;1.45;1.35;;;;;;;25.88;36.55;101490.97;20994800;28;20029;-68
2023/05/28 22:15:14;;;;;;;1.92;1.67;;;;;;;25.74;36.35;101474.03;20994677;28;20055;-69
2023/05/28 22:25:18;;;;;;;1.27;1.17;;;;;;;25.86;36.80;101496.91;20992826;28;20028;-67
2023/05/28 22:35:23;;;;;;;2.03;1.67;;;;;;;25.91;36.31;101491.22;20993121;28;20483;-68
2023/05/28 22:45:27;;;;;;;1.48;1.27;;;;;;;25.90;36.56;101483.94;20992890;28;20395;-68
2023/05/28 22:55:29;;;;;;;1.80;1.70;;;;;;;25.77;36.69;101460.28;20988599;28;20044;-67
2023/05/28 23:05:31;;;;;;;1.60;1.48;;;;;;;25.66;36.61;101455.94;20991571;28;20052;-68
2023/05/28 23:15:32;;;;;;;1.60;1.50;;;;;;;25.90;36.72;101471.91;20991361;28;20094;-67
2023/05/28 23:25:33;;;;;;;1.80;1.70;;;;;;;25.63;36.76;101414.47;20989117;28;20032;-68
2023/05/28 23:35:35;;;;;;;4.15;1.50;;;;;;;25.91;36.66;101451.97;20993965;28;20094;-68
2023/05/28 23:45:37;;;;;;;2.22;1.90;;;;;;;25.90;36.61;101466.28;21006860;28;20028;-69
2023/05/28 23:55:39;;;;;;;2.00;1.70;;;;;;;25.92;36.50;101470.44;21005007;28;20044;-70
